• Join FlightAware (Why Join?)
  • Login
  • US Flag 
01:25AM EDT


 

Airport Tracker/Info


-or-


 

Live Flight TrackerFlight Track Log ✈ CWC409 ✈ 18-Jul-2013 ✈ KMIA - SBEG / MAO

Flight Track Log - Related Links

Times and Time Zones

All times are in EDT time to prevent confusion due to time zone crossing. See the CWC409 flight status page for this flight to view local times or setup timezone preferences in your user account.

Time Position Orientation Groundspeed Altitude Reporting Facility
EDT Latitude Longitude Course Direction KTS MPH feet Rate Location/Type
01:07PM 25.7983 -80.2631 67° East 185 213 1,000  Level Miami Center
01:08PM 25.8117 -80.2286 67° East 212 244 1,900 2,280 Climbing Miami Center
01:09PM 25.8300 -80.1553 74° East 277 319 4,500 2,880 Climbing Miami Center
01:10PM 25.8481 -80.1028 69° East 275 316 6,500 2,880 Climbing Miami Center
01:11PM 25.8311 -80.0192 103° East 274 315 9,300 2,340 Climbing Miami Center
01:12PM 25.8081 -79.9264 105° East 280 322 11,200 1,800 Climbing Miami Center
01:13PM 25.7831 -79.8172 104° East 321 369 13,000 1,740 Climbing Miami Center
01:14PM 25.7519 -79.6919 105° East 372 428 14,700 2,400 Climbing Miami Center
01:15PM 25.7064 -79.5686 112° Southeast 403 464 17,900 2,460 Climbing Miami Center
01:16PM 25.6519 -79.4567 118° Southeast 413 475 19,700 1,620 Climbing Miami Center
01:17PM 25.5892 -79.3333 119° Southeast 436 502 21,200 1,500 Climbing Miami Center
01:18PM 25.5244 -79.2100 120° Southeast 457 526 22,700 1,560 Climbing Miami Center
01:19PM 25.4575 -79.0775 119° Southeast 474 545 24,400 1,500 Climbing Miami Center
01:20PM 25.3608 -78.9700 135° Southeast 485 558 25,800 1,560 Climbing Miami Center
01:21PM 25.2297 -78.9378 167° South 446 513 27,600 1,800 Climbing Miami Center
01:22PM 25.0975 -78.9839 198° South 425 489 29,400 1,620 Climbing Miami Center
01:23PM 24.9753 -79.0572 209° Southwest 451 519 30,900 1,260 Climbing Miami Center
01:24PM 24.8656 -79.1217 208° Southwest 466 536 32,000 1,200 Climbing Miami Center
01:25PM 24.7472 -79.1997 211° Southwest 485 558 33,300 1,500 Climbing Miami Center
01:26PM 24.6292 -79.2797 212° Southwest 495 570 35,000 840 Climbing Miami Center
01:27PM 24.5031 -79.3231 197° South 489 563 35,000  Level Miami Center
01:28PM 24.3719 -79.2931 168° South 461 531 35,000  Level Miami Center
01:29PM 24.2431 -79.2450 161° South 461 531 35,000  Level Miami Center
01:30PM 24.0997 -79.1944 162° South 480 552 35,000  Level Miami Center
01:31PM 23.9769 -79.1511 162° South 486 559 35,000  Level Miami Center
01:33PM 23.7288 -79.0999 169° South  Level FlightAware Approximate
01:40PM 22.8222 -78.9146 169° South  Level FlightAware Approximate
01:41PM 22.6891 -78.8918 173° South  Level FlightAware Approximate
01:42PM 22.5583 -78.8743 173° South  Level FlightAware Approximate
01:43PM 22.4275 -78.8569 173° South  Level FlightAware Approximate
01:44PM 22.2967 -78.8394 173° South  Level FlightAware Approximate
01:45PM 22.1660 -78.8220 173° South  Level FlightAware Approximate
01:46PM 22.0352 -78.8047 173° South  Level FlightAware Approximate
01:47PM 21.9129 -78.7557 155° Southeast  Level FlightAware Approximate
01:48PM 21.7937 -78.6951 155° Southeast  Level FlightAware Approximate
01:49PM 21.6745 -78.6346 155° Southeast  Level FlightAware Approximate
01:50PM 21.5553 -78.5743 155° Southeast  Level FlightAware Approximate
01:51PM 21.4360 -78.5140 155° Southeast  Level FlightAware Approximate
01:52PM 21.3167 -78.4538 155° Southeast  Level FlightAware Approximate
01:53PM 21.1975 -78.3938 155° Southeast  Level FlightAware Approximate
01:54PM 21.0781 -78.3338 155° Southeast  Level FlightAware Approximate
01:55PM 20.9588 -78.2739 155° Southeast  Level FlightAware Approximate
01:56PM 20.8395 -78.2142 155° Southeast  Level FlightAware Approximate
01:57PM 20.7201 -78.1545 155° Southeast  Level FlightAware Approximate
01:58PM 20.6007 -78.0949 155° Southeast  Level FlightAware Approximate
01:59PM 20.4813 -78.0354 155° Southeast  Level FlightAware Approximate
02:00PM 20.3619 -77.9760 155° Southeast  Level FlightAware Approximate
02:01PM 20.2424 -77.9167 155° Southeast  Level FlightAware Approximate
02:02PM 20.1229 -77.8575 155° Southeast  Level FlightAware Approximate
02:03PM 20.0034 -77.7983 155° Southeast  Level FlightAware Approximate
02:04PM 19.8839 -77.7393 155° Southeast  Level FlightAware Approximate
02:05PM 19.7644 -77.6803 155° Southeast  Level FlightAware Approximate
02:06PM 19.6448 -77.6215 155° Southeast  Level FlightAware Approximate
02:07PM 19.5253 -77.5626 155° Southeast  Level FlightAware Approximate
02:08PM 19.4061 -77.5031 155° Southeast  Level FlightAware Approximate
02:09PM 19.2868 -77.4436 155° Southeast  Level FlightAware Approximate
02:10PM 19.1676 -77.3842 155° Southeast  Level FlightAware Approximate
02:11PM 19.0483 -77.3249 155° Southeast  Level FlightAware Approximate
02:12PM 18.9291 -77.2656 155° Southeast  Level FlightAware Approximate
02:13PM 18.8098 -77.2065 155° Southeast  Level FlightAware Approximate
02:14PM 18.6904 -77.1474 155° Southeast  Level FlightAware Approximate
02:15PM 18.5711 -77.0885 155° Southeast  Level FlightAware Approximate
02:16PM 18.4517 -77.0296 155° Southeast  Level FlightAware Approximate
02:17PM 18.3324 -76.9708 155° Southeast  Level FlightAware Approximate
02:18PM 18.2130 -76.9120 155° Southeast  Level FlightAware Approximate
02:19PM 18.0936 -76.8534 155° Southeast  Level FlightAware Approximate
02:20PM 17.9741 -76.7948 155° Southeast  Level FlightAware Approximate
02:21PM 17.8620 -76.7235 143° Southeast  Level FlightAware Approximate
02:22PM 17.7566 -76.6404 143° Southeast  Level FlightAware Approximate
02:23PM 17.6512 -76.5575 143° Southeast  Level FlightAware Approximate
02:24PM 17.5457 -76.4746 143° Southeast  Level FlightAware Approximate
02:25PM 17.4403 -76.3918 143° Southeast  Level FlightAware Approximate
02:26PM 17.3347 -76.3091 143° Southeast  Level FlightAware Approximate
02:27PM 17.2292 -76.2265 143° Southeast  Level FlightAware Approximate
02:28PM 17.1236 -76.1440 143° Southeast  Level FlightAware Approximate
02:29PM 17.0180 -76.0616 143° Southeast  Level FlightAware Approximate
02:30PM 16.9123 -75.9792 143° Southeast  Level FlightAware Approximate
02:31PM 16.8066 -75.8970 143° Southeast  Level FlightAware Approximate
02:32PM 16.7009 -75.8149 143° Southeast  Level FlightAware Approximate
02:33PM 16.5951 -75.7328 143° Southeast  Level FlightAware Approximate
02:34PM 16.4893 -75.6509 143° Southeast  Level FlightAware Approximate
02:35PM 16.3829 -75.5699 144° Southeast  Level FlightAware Approximate
02:36PM 16.2762 -75.4893 144° Southeast  Level FlightAware Approximate
02:37PM 16.1695 -75.4088 144° Southeast  Level FlightAware Approximate
02:38PM 16.0627 -75.3284 144° Southeast  Level FlightAware Approximate
02:39PM 15.9559 -75.2480 144° Southeast  Level FlightAware Approximate
02:40PM 15.8491 -75.1677 144° Southeast  Level FlightAware Approximate
02:41PM 15.7423 -75.0876 144° Southeast  Level FlightAware Approximate
02:42PM 15.6355 -75.0075 144° Southeast  Level FlightAware Approximate
02:43PM 15.5286 -74.9275 144° Southeast  Level FlightAware Approximate
02:44PM 15.4217 -74.8475 144° Southeast  Level FlightAware Approximate
02:45PM 15.3147 -74.7677 144° Southeast  Level FlightAware Approximate
02:46PM 15.2078 -74.6880 144° Southeast  Level FlightAware Approximate
02:47PM 15.1007 -74.6083 144° Southeast  Level FlightAware Approximate
02:48PM 14.9938 -74.5286 144° Southeast  Level FlightAware Approximate
02:49PM 14.8871 -74.4486 144° Southeast  Level FlightAware Approximate
02:50PM 14.7804 -74.3686 144° Southeast  Level FlightAware Approximate
02:51PM 14.6737 -74.2887 144° Southeast  Level FlightAware Approximate
02:52PM 14.5669 -74.2088 144° Southeast  Level FlightAware Approximate
02:53PM 14.4601 -74.1291 144° Southeast  Level FlightAware Approximate
02:54PM 14.3533 -74.0494 144° Southeast  Level FlightAware Approximate
02:55PM 14.2465 -73.9698 144° Southeast  Level FlightAware Approximate
02:56PM 14.1396 -73.8903 144° Southeast  Level FlightAware Approximate
02:57PM 14.0327 -73.8108 144° Southeast  Level FlightAware Approximate
02:58PM 13.9258 -73.7315 144° Southeast  Level FlightAware Approximate
02:59PM 13.8189 -73.6522 144° Southeast  Level FlightAware Approximate
03:00PM 13.7119 -73.5729 144° Southeast  Level FlightAware Approximate
03:01PM 13.6049 -73.4938 144° Southeast  Level FlightAware Approximate
03:02PM 13.4979 -73.4147 144° Southeast  Level FlightAware Approximate
03:03PM 13.3908 -73.3356 144° Southeast  Level FlightAware Approximate
03:04PM 13.2838 -73.2567 144° Southeast  Level FlightAware Approximate
03:05PM 13.1767 -73.1778 144° Southeast  Level FlightAware Approximate
03:06PM 13.0696 -73.0990 144° Southeast  Level FlightAware Approximate
03:07PM 12.9624 -73.0203 144° Southeast  Level FlightAware Approximate
03:08PM 12.8553 -72.9416 144° Southeast  Level FlightAware Approximate
03:09PM 12.7481 -72.8630 144° Southeast  Level FlightAware Approximate
03:10PM 12.6409 -72.7845 144° Southeast  Level FlightAware Approximate
03:11PM 12.5336 -72.7060 144° Southeast  Level FlightAware Approximate
03:12PM 12.4264 -72.6276 144° Southeast  Level FlightAware Approximate
03:13PM 12.3191 -72.5492 144° Southeast  Level FlightAware Approximate
03:14PM 12.2118 -72.4710 145° Southeast  Level FlightAware Approximate
03:15PM 12.1045 -72.3928 145° Southeast  Level FlightAware Approximate
03:16PM 11.9972 -72.3146 145° Southeast  Level FlightAware Approximate
03:17PM 11.8898 -72.2365 145° Southeast  Level FlightAware Approximate
03:18PM 11.7824 -72.1585 145° Southeast  Level FlightAware Approximate
03:19PM 11.6750 -72.0805 145° Southeast  Level FlightAware Approximate
03:20PM 11.5676 -72.0026 145° Southeast  Level FlightAware Approximate
03:21PM 11.4601 -71.9248 145° Southeast  Level FlightAware Approximate
03:22PM 11.3526 -71.8470 145° Southeast  Level FlightAware Approximate
03:23PM 11.2451 -71.7692 145° Southeast  Level FlightAware Approximate
03:24PM 11.1376 -71.6916 145° Southeast  Level FlightAware Approximate
03:25PM 11.0301 -71.6140 145° Southeast  Level FlightAware Approximate
03:26PM 10.9226 -71.5364 145° Southeast  Level FlightAware Approximate
03:27PM 10.8150 -71.4589 145° Southeast  Level FlightAware Approximate
03:28PM 10.7074 -71.3814 145° Southeast  Level FlightAware Approximate
03:29PM 10.5998 -71.3041 145° Southeast  Level FlightAware Approximate
03:30PM 10.4922 -71.2267 145° Southeast  Level FlightAware Approximate
03:31PM 10.3845 -71.1494 145° Southeast  Level FlightAware Approximate
03:32PM 10.2768 -71.0722 145° Southeast  Level FlightAware Approximate
03:33PM 10.1692 -70.9950 145° Southeast  Level FlightAware Approximate
03:34PM 10.0615 -70.9179 145° Southeast  Level FlightAware Approximate
03:35PM 9.9537 -70.8408 145° Southeast  Level FlightAware Approximate
03:36PM 9.8461 -70.7638 145° Southeast  Level FlightAware Approximate
03:37PM 9.7386 -70.6865 145° Southeast  Level FlightAware Approximate
03:38PM 9.6311 -70.6092 145° Southeast  Level FlightAware Approximate
03:39PM 9.5235 -70.5319 145° Southeast  Level FlightAware Approximate
03:40PM 9.4160 -70.4547 145° Southeast  Level FlightAware Approximate
03:41PM 9.3084 -70.3776 145° Southeast  Level FlightAware Approximate
03:42PM 9.2008 -70.3005 145° Southeast  Level FlightAware Approximate
03:43PM 9.0933 -70.2234 145° Southeast  Level FlightAware Approximate
03:44PM 8.9856 -70.1464 145° Southeast  Level FlightAware Approximate
03:45PM 8.8780 -70.0695 145° Southeast  Level FlightAware Approximate
03:46PM 8.7704 -69.9926 145° Southeast  Level FlightAware Approximate
03:47PM 8.6627 -69.9157 145° Southeast  Level FlightAware Approximate
03:48PM 8.5550 -69.8389 145° Southeast  Level FlightAware Approximate
03:49PM 8.4473 -69.7621 145° Southeast  Level FlightAware Approximate
03:50PM 8.3397 -69.6853 145° Southeast  Level FlightAware Approximate
03:51PM 8.2319 -69.6086 145° Southeast  Level FlightAware Approximate
03:52PM 8.1242 -69.5320 145° Southeast  Level FlightAware Approximate
03:53PM 8.0164 -69.4554 145° Southeast  Level FlightAware Approximate
03:54PM 7.9087 -69.3788 145° Southeast  Level FlightAware Approximate
03:55PM 7.8009 -69.3022 145° Southeast  Level FlightAware Approximate
03:56PM 7.6931 -69.2257 145° Southeast  Level FlightAware Approximate
03:57PM 7.5851 -69.1496 145° Southeast  Level FlightAware Approximate
03:58PM 7.4768 -69.0739 145° Southeast  Level FlightAware Approximate
03:59PM 7.3685 -68.9982 145° Southeast  Level FlightAware Approximate
04:00PM 7.2601 -68.9226 145° Southeast  Level FlightAware Approximate
04:01PM 7.1518 -68.8470 145° Southeast  Level FlightAware Approximate
04:02PM 7.0434 -68.7714 145° Southeast  Level FlightAware Approximate
04:03PM 6.9351 -68.6959 145° Southeast  Level FlightAware Approximate
04:04PM 6.8267 -68.6204 145° Southeast  Level FlightAware Approximate
04:05PM 6.7183 -68.5449 145° Southeast  Level FlightAware Approximate
04:06PM 6.6099 -68.4695 145° Southeast  Level FlightAware Approximate
04:07PM 6.5015 -68.3941 145° Southeast  Level FlightAware Approximate
04:08PM 6.3930 -68.3188 145° Southeast  Level FlightAware Approximate
04:09PM 6.2846 -68.2434 145° Southeast  Level FlightAware Approximate
04:10PM 6.1761 -68.1681 145° Southeast  Level FlightAware Approximate
04:11PM 6.0753 -68.0831 138° Southeast  Level FlightAware Approximate
04:12PM 5.9769 -67.9950 138° Southeast  Level FlightAware Approximate
04:13PM 5.8784 -67.9070 138° Southeast  Level FlightAware Approximate
04:14PM 5.7800 -67.8189 138° Southeast  Level FlightAware Approximate
04:15PM 5.6815 -67.7309 138° Southeast  Level FlightAware Approximate
04:16PM 5.5830 -67.6430 138° Southeast  Level FlightAware Approximate
04:17PM 5.4845 -67.5550 138° Southeast  Level FlightAware Approximate
04:18PM 5.3860 -67.4671 138° Southeast  Level FlightAware Approximate
04:19PM 5.2875 -67.3792 138° Southeast  Level FlightAware Approximate
04:20PM 5.1890 -67.2914 138° Southeast  Level FlightAware Approximate
04:21PM 5.0904 -67.2035 138° Southeast  Level FlightAware Approximate
04:22PM 4.9918 -67.1157 138° Southeast  Level FlightAware Approximate
04:23PM 4.8933 -67.0279 138° Southeast  Level FlightAware Approximate
04:24PM 4.7947 -66.9402 138° Southeast  Level FlightAware Approximate
04:25PM 4.6961 -66.8525 138° Southeast  Level FlightAware Approximate
04:26PM 4.5975 -66.7648 138° Southeast  Level FlightAware Approximate
04:27PM 4.4989 -66.6771 138° Southeast  Level FlightAware Approximate
04:28PM 4.4002 -66.5894 138° Southeast  Level FlightAware Approximate
04:29PM 4.3016 -66.5018 138° Southeast  Level FlightAware Approximate
04:30PM 4.2030 -66.4142 138° Southeast  Level FlightAware Approximate
04:31PM 4.1043 -66.3266 138° Southeast  Level FlightAware Approximate
04:32PM 4.0056 -66.2391 138° Southeast  Level FlightAware Approximate
04:33PM 3.9069 -66.1515 138° Southeast  Level FlightAware Approximate
04:34PM 3.8083 -66.0640 138° Southeast  Level FlightAware Approximate
04:35PM 3.7096 -65.9765 138° Southeast  Level FlightAware Approximate
04:36PM 3.6109 -65.8890 139° Southeast  Level FlightAware Approximate
04:37PM 3.5122 -65.8016 139° Southeast  Level FlightAware Approximate
04:38PM 3.4135 -65.7141 139° Southeast  Level FlightAware Approximate
04:39PM 3.3147 -65.6267 139° Southeast  Level FlightAware Approximate
04:40PM 3.2160 -65.5393 139° Southeast  Level FlightAware Approximate
04:41PM 3.1172 -65.4519 139° Southeast  Level FlightAware Approximate
04:42PM 3.0185 -65.3645 139° Southeast  Level FlightAware Approximate
04:43PM 2.9197 -65.2772 139° Southeast  Level FlightAware Approximate
04:44PM 2.8210 -65.1898 139° Southeast  Level FlightAware Approximate
04:45PM 2.7222 -65.1025 139° Southeast  Level FlightAware Approximate
04:46PM 2.6234 -65.0152 139° Southeast  Level FlightAware Approximate
04:47PM 2.5247 -64.9279 139° Southeast  Level FlightAware Approximate
04:48PM 2.4259 -64.8406 139° Southeast  Level FlightAware Approximate
04:49PM 2.3271 -64.7533 139° Southeast  Level FlightAware Approximate
04:50PM 2.2283 -64.6660 139° Southeast  Level FlightAware Approximate
04:51PM 2.1295 -64.5788 139° Southeast  Level FlightAware Approximate
04:52PM 2.0307 -64.4915 139° Southeast  Level FlightAware Approximate
04:53PM 1.9319 -64.4043 139° Southeast  Level FlightAware Approximate
04:54PM 1.8330 -64.3171 139° Southeast  Level FlightAware Approximate
04:55PM 1.7342 -64.2299 139° Southeast  Level FlightAware Approximate
04:56PM 1.6354 -64.1427 139° Southeast  Level FlightAware Approximate
04:57PM 1.5366 -64.0555 139° Southeast  Level FlightAware Approximate
04:58PM 1.4377 -63.9683 139° Southeast  Level FlightAware Approximate
04:59PM 1.3389 -63.8811 139° Southeast  Level FlightAware Approximate
05:00PM 1.2400 -63.7940 139° Southeast  Level FlightAware Approximate
05:01PM 1.1412 -63.7068 139° Southeast  Level FlightAware Approximate
05:02PM 1.0424 -63.6196 139° Southeast  Level FlightAware Approximate
05:03PM 0.9435 -63.5325 139° Southeast  Level FlightAware Approximate
05:04PM 0.8447 -63.4453 139° Southeast  Level FlightAware Approximate
05:05PM 0.7458 -63.3582 139° Southeast  Level FlightAware Approximate
05:06PM 0.6470 -63.2711 139° Southeast  Level FlightAware Approximate
05:07PM 0.5481 -63.1839 139° Southeast  Level FlightAware Approximate
05:08PM 0.4493 -63.0968 139° Southeast  Level FlightAware Approximate
05:09PM 0.3504 -63.0097 139° Southeast  Level FlightAware Approximate
05:10PM 0.2515 -62.9225 139° Southeast  Level FlightAware Approximate
05:11PM 0.1527 -62.8354 139° Southeast  Level FlightAware Approximate
05:12PM 0.0538 -62.7483 139° Southeast  Level FlightAware Approximate
05:13PM -0.0450 -62.6612 139° Southeast  Level FlightAware Approximate
05:14PM -0.1439 -62.5740 139° Southeast  Level FlightAware Approximate
05:15PM -0.2428 -62.4869 139° Southeast  Level FlightAware Approximate
05:16PM -0.3416 -62.3998 139° Southeast  Level FlightAware Approximate
05:17PM -0.4405 -62.3126 139° Southeast  Level FlightAware Approximate
05:18PM -0.5393 -62.2255 139° Southeast  Level FlightAware Approximate
05:19PM -0.6382 -62.1384 139° Southeast  Level FlightAware Approximate
05:20PM -0.7370 -62.0512 139° Southeast  Level FlightAware Approximate
05:21PM -0.8359 -61.9641 139° Southeast  Level FlightAware Approximate
05:22PM -0.9347 -61.8769 139° Southeast  Level FlightAware Approximate
05:23PM -1.0336 -61.7898 139° Southeast  Level FlightAware Approximate
05:24PM -1.1324 -61.7026 139° Southeast  Level FlightAware Approximate
05:25PM -1.2313 -61.6155 139° Southeast  Level FlightAware Approximate
05:26PM -1.3301 -61.5283 139° Southeast  Level FlightAware Approximate
05:27PM -1.4292 -61.4414 139° Southeast  Level FlightAware Approximate
05:28PM -1.5288 -61.3551 139° Southeast  Level FlightAware Approximate
05:29PM -1.6284 -61.2688 139° Southeast  Level FlightAware Approximate
05:30PM -1.7241 -61.1783 138° Southeast  Level FlightAware Approximate
05:31PM -1.8221 -61.0901 138° Southeast  Level FlightAware Approximate
05:32PM -1.9223 -61.0045 141° Southeast  Level FlightAware Approximate
05:33PM -2.0243 -60.9211 141° Southeast  Level FlightAware Approximate
05:34PM -2.1229 -60.8337 138° Southeast  Level FlightAware Approximate
05:35PM -2.2205 -60.7450 138° Southeast  Level FlightAware Approximate
05:36PM -2.3180 -60.6564 138° Southeast  Level FlightAware Approximate
05:37PM -2.4155 -60.5677 138° Southeast  Level FlightAware Approximate
05:38PM -2.5209 -60.4885 143° Southeast  Level FlightAware Approximate
05:39PM -2.6210 -60.4028 138° Southeast  Level FlightAware Approximate
05:40PM -2.7188 -60.3145 135° Southeast  Level FlightAware Approximate
05:41PM -2.8121 -60.2213 135° Southeast  Level FlightAware Approximate
05:42PM -2.9145 -60.1391 143° Southeast  Level FlightAware Approximate
05:43PM -3.0138 -60.0529 135° Southeast  Level FlightAware Approximate
05:44PM -3.0167 -60.0500 135° Southeast  Level FlightAware Approximate
05:45PM -3.0386 -60.0497 135° Southeast  Level Estimated
05:46PM -3.0386 -60.0497 135° Southeast  Level Estimated
05:47PM -3.0386 -60.0497 135° Southeast  Level Estimated
05:48PM -3.0386 -60.0497 135° Southeast  Level Estimated
05:49PM -3.0386 -60.0497 135° Southeast  Level Estimated
05:50PM -3.0386 -60.0497 135° Southeast  Level Estimated
05:51PM -3.0386 -60.0497 135° Southeast  Level Estimated
05:52PM -3.0386 -60.0497 135° Southeast  Level Estimated
05:53PM -3.0386 -60.0497 135° Southeast  Level Estimated
05:54PM -3.0386 -60.0497 135° Southeast  Level Estimated
05:55PM -3.0386 -60.0497 135° Southeast  Level Estimated
05:56PM -3.0386 -60.0497 135° Southeast  Level Estimated
05:57PM -3.0386 -60.0497 135° Southeast  Level Estimated